createdAt,value
2023-03-22T00:00:13.321Z,92.90
2023-03-22T00:01:13.307Z,93.10
2023-03-22T00:02:13.397Z,92.65
2023-03-22T00:03:13.293Z,92.90
2023-03-22T00:04:13.344Z,92.80
2023-03-22T00:05:13.269Z,93.00
2023-03-22T00:06:13.257Z,92.29
2023-03-22T00:07:13.282Z,93.10
2023-03-22T00:08:13.247Z,92.80
2023-03-22T00:09:13.225Z,92.86
2023-03-22T00:10:13.236Z,92.86
2023-03-22T00:11:13.200Z,92.76
2023-03-22T00:12:13.192Z,92.96
2023-03-22T00:13:13.204Z,92.35
2023-03-22T00:14:13.192Z,91.83
2023-03-22T00:15:13.156Z,92.76
2023-03-22T00:16:13.219Z,91.94
2023-03-22T00:17:13.138Z,92.24
2023-03-22T00:18:13.163Z,92.19
2023-03-22T00:19:13.120Z,91.98
2023-03-22T00:20:13.105Z,92.29
2023-03-22T00:21:13.107Z,92.24
2023-03-22T00:22:13.089Z,92.08
2023-03-22T00:23:13.075Z,91.88
2023-03-22T00:24:13.074Z,91.74
2023-03-22T00:25:13.055Z,92.76
2023-03-22T00:26:13.113Z,92.29
2023-03-22T00:27:13.040Z,92.49
2023-03-22T00:28:13.025Z,92.19
2023-03-22T00:29:13.021Z,91.98
2023-03-22T00:30:13.006Z,92.29
2023-03-22T00:31:13.018Z,92.29
2023-03-22T00:32:12.976Z,91.94
2023-03-22T00:33:12.971Z,92.69
2023-03-22T00:34:12.982Z,91.98
2023-03-22T00:35:12.958Z,92.29
2023-03-22T00:36:12.947Z,92.08
2023-03-22T00:37:12.930Z,93.00
2023-03-22T00:38:12.925Z,92.14
2023-03-22T00:39:12.932Z,92.45
2023-03-22T00:40:12.896Z,92.04
2023-03-22T00:41:12.887Z,91.83
2023-03-22T00:42:12.909Z,92.14
2023-03-22T00:43:12.863Z,91.67
2023-03-22T00:44:12.865Z,91.94
2023-03-22T00:45:12.870Z,91.94
2023-03-22T00:46:12.934Z,91.94
2023-03-22T00:47:12.825Z,92.04
2023-03-22T00:48:12.899Z,91.98
2023-03-22T00:49:12.808Z,91.94
2023-03-22T00:50:12.790Z,91.78
2023-03-22T00:51:12.799Z,92.39
2023-03-22T00:52:12.763Z,92.59
2023-03-22T00:53:12.753Z,92.59
2023-03-22T00:54:12.754Z,92.49
2023-03-22T00:55:12.742Z,92.19
2023-03-22T00:56:12.736Z,92.19
2023-03-22T00:57:12.709Z,92.08
2023-03-22T00:58:12.729Z,92.29
2023-03-22T00:59:12.697Z,91.88
2023-03-22T01:00:12.680Z,91.78
2023-03-22T01:01:12.716Z,91.74
2023-03-22T01:02:12.669Z,92.08
2023-03-22T01:03:12.697Z,92.29
2023-03-22T01:04:12.640Z,92.65
2023-03-22T01:05:12.629Z,92.35
2023-03-22T01:06:12.622Z,92.35
2023-03-22T01:07:12.622Z,92.04
2023-03-22T01:08:12.597Z,91.57
2023-03-22T01:09:12.583Z,92.55
2023-03-22T01:10:12.568Z,91.57
2023-03-22T01:11:12.553Z,91.67
2023-03-22T01:12:12.568Z,91.98
2023-03-22T01:13:12.555Z,91.92
2023-03-22T01:14:12.548Z,92.02
2023-03-22T01:15:12.557Z,92.08
2023-03-22T01:16:12.577Z,92.33
2023-03-22T01:17:12.522Z,92.02
2023-03-22T01:18:12.577Z,92.33
2023-03-22T01:19:12.471Z,92.88
2023-03-22T01:20:12.455Z,93.19
2023-03-22T01:21:12.471Z,93.29
2023-03-22T01:22:12.451Z,93.25
2023-03-22T01:23:12.445Z,93.15
2023-03-22T01:24:12.430Z,93.15
2023-03-22T01:25:12.406Z,93.15
2023-03-22T01:26:12.394Z,93.05
2023-03-22T01:27:12.384Z,93.05
2023-03-22T01:28:12.378Z,93.00
2023-03-22T01:29:12.363Z,93.15
2023-03-22T01:30:12.400Z,92.64
2023-03-22T01:31:12.385Z,92.84
2023-03-22T01:32:12.346Z,92.43
2023-03-22T01:33:12.318Z,92.29
2023-03-22T01:34:12.313Z,93.35
2023-03-22T01:35:12.346Z,92.02
2023-03-22T01:36:12.308Z,92.33
2023-03-22T01:37:12.281Z,91.96
2023-03-22T01:38:12.271Z,93.15
2023-03-22T01:39:12.258Z,93.05
2023-03-22T01:40:12.245Z,92.94
2023-03-22T01:41:12.262Z,92.74
2023-03-22T01:42:12.230Z,92.74
2023-03-22T01:43:12.232Z,92.64
2023-03-22T01:44:12.206Z,92.94
2023-03-22T01:45:12.202Z,93.05
2023-03-22T01:46:12.249Z,92.94
2023-03-22T01:47:12.180Z,92.94
2023-03-22T01:48:12.249Z,92.94
2023-03-22T01:49:12.307Z,92.84
2023-03-22T01:50:12.150Z,92.64
2023-03-22T01:51:12.130Z,92.84
2023-03-22T01:52:12.124Z,92.02
2023-03-22T01:53:12.165Z,92.84
2023-03-22T01:54:12.127Z,92.02
2023-03-22T01:55:12.085Z,92.13
2023-03-22T01:56:12.083Z,92.54
2023-03-22T01:57:12.107Z,92.54
2023-03-22T01:58:12.060Z,91.92
2023-03-22T01:59:12.071Z,92.23
2023-03-22T02:00:12.029Z,92.17
2023-03-22T02:01:12.062Z,92.33
2023-03-22T02:02:12.039Z,92.17
2023-03-22T02:03:12.005Z,91.86
2023-03-22T02:04:11.996Z,93.19
2023-03-22T02:05:12.003Z,92.78
2023-03-22T02:06:11.967Z,92.78
2023-03-22T02:07:11.988Z,92.78
2023-03-22T02:08:11.944Z,93.24
2023-03-22T02:09:11.947Z,92.88
2023-03-22T02:10:11.932Z,92.47
2023-03-22T02:11:11.924Z,92.78
2023-03-22T02:12:11.919Z,92.68
2023-03-22T02:13:11.903Z,92.68
2023-03-22T02:14:11.904Z,92.72
2023-03-22T02:15:11.889Z,93.09
2023-03-22T02:16:11.905Z,93.13
2023-03-22T02:17:11.862Z,93.24
2023-03-22T02:18:11.865Z,92.62
2023-03-22T02:19:11.835Z,93.44
2023-03-22T02:20:11.824Z,93.33
2023-03-22T02:21:11.811Z,93.33
2023-03-22T02:22:11.800Z,93.44
2023-03-22T02:23:11.805Z,93.60
2023-03-22T02:24:11.794Z,92.83
2023-03-22T02:25:11.774Z,93.03
2023-03-22T02:26:11.762Z,92.32
2023-03-22T02:27:11.751Z,92.07
2023-03-22T02:28:11.779Z,92.52
2023-03-22T02:29:11.730Z,92.88
2023-03-22T02:30:11.710Z,92.32
2023-03-22T02:31:11.798Z,93.24
2023-03-22T02:32:11.701Z,92.17
2023-03-22T02:33:11.685Z,92.78
2023-03-22T02:34:11.800Z,91.96
2023-03-22T02:35:11.667Z,92.07
2023-03-22T02:36:11.652Z,92.32
2023-03-22T02:37:11.643Z,92.32
2023-03-22T02:38:11.668Z,92.21
2023-03-22T02:39:11.610Z,92.62
2023-03-22T02:40:11.633Z,92.72
2023-03-22T02:41:11.599Z,92.32
2023-03-22T02:42:11.581Z,92.32
2023-03-22T02:43:11.575Z,92.62
2023-03-22T02:44:11.588Z,92.21
2023-03-22T02:45:11.558Z,92.62
2023-03-22T02:46:11.610Z,92.32
2023-03-22T02:47:11.524Z,91.86
2023-03-22T02:48:11.569Z,91.76
2023-03-22T02:49:11.546Z,91.19
2023-03-22T02:50:11.522Z,91.09
2023-03-22T02:51:11.485Z,90.99
2023-03-22T02:52:11.493Z,91.39
2023-03-22T02:53:11.464Z,91.60
2023-03-22T02:54:11.471Z,92.62
2023-03-22T02:55:11.475Z,92.32
2023-03-22T02:56:11.444Z,91.70
2023-03-22T02:57:11.417Z,91.91
2023-03-22T02:58:11.485Z,91.80
2023-03-22T02:59:11.416Z,91.80
2023-03-22T03:00:11.390Z,91.70
2023-03-22T03:01:11.463Z,91.50
2023-03-22T03:02:11.539Z,91.25
2023-03-22T03:03:11.580Z,91.09
2023-03-22T03:04:11.349Z,90.94
2023-03-22T03:05:11.356Z,91.39
2023-03-22T03:06:11.343Z,91.09
2023-03-22T03:07:11.348Z,91.19
2023-03-22T03:08:11.303Z,91.19
2023-03-22T03:09:11.282Z,91.29
2023-03-22T03:10:11.354Z,91.44
2023-03-22T03:11:11.274Z,90.88
2023-03-22T03:12:11.252Z,91.50
2023-03-22T03:13:11.422Z,90.99
2023-03-22T03:14:11.245Z,90.82
2023-03-22T03:15:11.223Z,91.54
2023-03-22T03:16:11.225Z,91.19
2023-03-22T03:17:11.212Z,91.03
2023-03-22T03:18:11.210Z,91.23
2023-03-22T03:19:11.198Z,91.44
2023-03-22T03:20:11.183Z,91.33
2023-03-22T03:21:11.187Z,91.27
2023-03-22T03:22:11.185Z,91.48
2023-03-22T03:23:11.141Z,91.38
2023-03-22T03:24:11.145Z,91.69
2023-03-22T03:25:11.138Z,91.99
2023-03-22T03:26:11.105Z,92.40
2023-03-22T03:27:11.090Z,91.69
2023-03-22T03:28:11.148Z,91.99
2023-03-22T03:29:11.072Z,91.99
2023-03-22T03:30:11.066Z,91.99
2023-03-22T03:31:11.085Z,92.30
2023-03-22T03:32:11.038Z,91.69
2023-03-22T03:33:11.030Z,92.40
2023-03-22T03:34:11.014Z,92.40
2023-03-22T03:35:11.026Z,92.60
2023-03-22T03:36:11.010Z,92.10
2023-03-22T03:37:11.000Z,92.40
2023-03-22T03:38:10.991Z,92.10
2023-03-22T03:39:10.979Z,92.40
2023-03-22T03:40:10.985Z,91.48
2023-03-22T03:41:10.979Z,91.27
2023-03-22T03:42:10.931Z,91.42
2023-03-22T03:43:10.926Z,91.69
2023-03-22T03:44:10.917Z,92.44
2023-03-22T03:45:10.904Z,91.89
2023-03-22T03:46:10.953Z,92.71
2023-03-22T03:47:10.899Z,91.99
2023-03-22T03:48:10.898Z,91.69
2023-03-22T03:49:10.860Z,91.78
2023-03-22T03:50:10.852Z,91.69
2023-03-22T03:51:10.829Z,91.69
2023-03-22T03:52:10.838Z,91.38
2023-03-22T03:53:10.822Z,91.58
2023-03-22T03:54:10.847Z,91.27
2023-03-22T03:55:10.807Z,91.07
2023-03-22T03:56:10.793Z,91.23
2023-03-22T03:57:10.774Z,91.48
2023-03-22T03:58:10.785Z,90.86
2023-03-22T03:59:10.746Z,90.66
2023-03-22T04:00:10.761Z,90.97
2023-03-22T04:01:10.752Z,90.86
2023-03-22T04:02:10.831Z,91.17
2023-03-22T04:03:10.706Z,90.92
2023-03-22T04:04:10.802Z,90.92
2023-03-22T04:05:10.698Z,90.52
2023-03-22T04:06:10.694Z,90.36
2023-03-22T04:07:10.661Z,90.36
2023-03-22T04:08:10.667Z,90.05
2023-03-22T04:09:10.647Z,90.56
2023-03-22T04:10:10.652Z,90.36
2023-03-22T04:11:19.239Z,90.77
2023-03-22T04:12:10.625Z,90.36
2023-03-22T04:13:10.598Z,90.77
2023-03-22T04:14:10.594Z,90.05
2023-03-22T04:15:10.583Z,90.25
2023-03-22T04:16:10.579Z,90.15
2023-03-22T04:17:10.587Z,90.25
2023-03-22T04:18:10.542Z,90.36
2023-03-22T04:19:10.532Z,90.36
2023-03-22T04:20:10.528Z,90.15
2023-03-22T04:21:10.522Z,90.15
2023-03-22T04:22:10.500Z,90.15
2023-03-22T04:23:10.509Z,90.77
2023-03-22T04:24:10.488Z,90.36
2023-03-22T04:25:10.475Z,90.45
2023-03-22T04:26:10.505Z,90.36
2023-03-22T04:27:10.470Z,89.84
2023-03-22T04:28:10.447Z,90.66
2023-03-22T04:29:10.426Z,90.56
2023-03-22T04:30:10.425Z,90.25
2023-03-22T04:31:10.438Z,90.66
2023-03-22T04:32:10.453Z,90.36
2023-03-22T04:33:10.386Z,90.25
2023-03-22T04:34:10.368Z,90.56
2023-03-22T04:35:10.364Z,90.36
2023-03-22T04:36:10.392Z,90.56
2023-03-22T04:37:10.350Z,90.21
2023-03-22T04:38:10.351Z,89.70
2023-03-22T04:39:10.313Z,90.41
2023-03-22T04:40:10.308Z,89.50
2023-03-22T04:41:10.310Z,89.39
2023-03-22T04:42:10.312Z,89.09
2023-03-22T04:43:12.206Z,89.29
2023-03-22T04:44:10.274Z,89.29
2023-03-22T04:45:10.256Z,89.18
2023-03-22T04:46:10.321Z,89.39
2023-03-22T04:47:10.258Z,89.18
2023-03-22T04:48:10.230Z,89.39
2023-03-22T04:49:10.204Z,89.18
2023-03-22T04:50:10.205Z,89.39
2023-03-22T04:51:10.209Z,89.39
2023-03-22T04:52:10.177Z,88.98
2023-03-22T04:53:10.172Z,88.98
2023-03-22T04:54:10.156Z,89.03
2023-03-22T04:55:10.175Z,89.03
2023-03-22T04:56:10.127Z,89.59
2023-03-22T04:57:10.125Z,89.18
2023-03-22T04:58:10.142Z,88.88
2023-03-22T04:59:10.107Z,89.29
2023-03-22T05:00:10.104Z,88.92
2023-03-22T05:01:10.109Z,88.68
2023-03-22T05:02:10.059Z,88.71
2023-03-22T05:03:10.195Z,88.92
2023-03-22T05:04:10.042Z,89.03
2023-03-22T05:05:10.065Z,88.92
2023-03-22T05:06:10.044Z,88.82
2023-03-22T05:07:10.022Z,89.23
2023-03-22T05:08:09.996Z,88.98
2023-03-22T05:09:09.994Z,89.03
2023-03-22T05:10:09.975Z,89.23
2023-03-22T05:11:09.987Z,88.92
2023-03-22T05:12:09.971Z,89.12
2023-03-22T05:13:09.949Z,89.23
2023-03-22T05:14:10.070Z,88.82
2023-03-22T05:15:09.952Z,89.12
2023-03-22T05:16:10.169Z,89.33
2023-03-22T05:17:09.915Z,89.53
2023-03-22T05:18:09.910Z,89.53
2023-03-22T05:19:09.891Z,89.43
2023-03-22T05:20:09.910Z,88.92
2023-03-22T05:21:09.857Z,88.78
2023-03-22T05:22:09.863Z,88.92
2023-03-22T05:23:09.864Z,88.78
2023-03-22T05:24:09.832Z,89.18
2023-03-22T05:25:09.830Z,88.68
2023-03-22T05:26:09.811Z,88.88
2023-03-22T05:27:09.796Z,88.68
2023-03-22T05:28:09.791Z,89.50
2023-03-22T05:29:09.792Z,88.98
2023-03-22T05:30:09.793Z,88.37
2023-03-22T05:31:09.807Z,88.26
2023-03-22T05:32:09.757Z,88.88
2023-03-22T05:33:09.765Z,88.26
2023-03-22T05:34:09.734Z,88.57
2023-03-22T05:35:09.717Z,88.47
2023-03-22T05:36:09.704Z,88.37
2023-03-22T05:37:09.695Z,88.47
2023-03-22T05:38:09.687Z,87.92
2023-03-22T05:39:09.699Z,88.17
2023-03-22T05:40:09.683Z,88.12
2023-03-22T05:41:09.672Z,87.30
2023-03-22T05:42:09.650Z,87.45
2023-03-22T05:43:09.634Z,87.45
2023-03-22T05:44:09.623Z,87.76
2023-03-22T05:45:09.628Z,87.85
2023-03-22T05:46:09.623Z,87.35
2023-03-22T05:47:09.604Z,87.45
2023-03-22T05:48:09.676Z,87.24
2023-03-22T05:49:11.999Z,87.24
2023-03-22T05:50:09.566Z,87.35
2023-03-22T05:51:09.595Z,87.55
2023-03-22T05:52:09.530Z,87.55
2023-03-22T05:53:09.554Z,87.55
2023-03-22T05:54:09.518Z,87.51
2023-03-22T05:55:09.521Z,87.45
2023-03-22T05:56:09.495Z,87.55
2023-03-22T05:57:09.498Z,87.20
2023-03-22T05:58:09.471Z,87.20
2023-03-22T05:59:09.468Z,87.24
2023-03-22T06:00:09.461Z,87.04
2023-03-22T06:01:09.437Z,86.83
2023-03-22T06:02:09.550Z,86.83
2023-03-22T06:03:09.455Z,87.45
2023-03-22T06:04:09.426Z,87.65
2023-03-22T06:05:09.416Z,87.55
2023-03-22T06:06:09.386Z,87.45
2023-03-22T06:07:09.368Z,87.35
2023-03-22T06:08:09.367Z,87.35
2023-03-22T06:09:16.892Z,87.24
2023-03-22T06:10:10.343Z,87.45
2023-03-22T06:11:09.332Z,87.45
2023-03-22T06:12:09.331Z,86.94
2023-03-22T06:13:09.356Z,87.45
2023-03-22T06:14:09.319Z,87.24
2023-03-22T06:15:09.296Z,87.45
2023-03-22T06:16:09.336Z,87.55
2023-03-22T06:17:09.293Z,87.65
2023-03-22T06:18:09.278Z,87.35
2023-03-22T06:19:09.252Z,87.71
2023-03-22T06:20:09.237Z,87.20
2023-03-22T06:21:09.271Z,86.83
2023-03-22T06:22:09.204Z,86.90
2023-03-22T06:23:09.192Z,87.20
2023-03-22T06:24:09.194Z,87.35
2023-03-22T06:25:09.187Z,87.30
2023-03-22T06:26:09.174Z,87.24
2023-03-22T06:27:09.156Z,87.00
2023-03-22T06:28:09.174Z,86.90
2023-03-22T06:29:09.138Z,87.30
2023-03-22T06:30:09.172Z,87.20
2023-03-22T06:31:09.304Z,87.30
2023-03-22T06:32:09.102Z,87.41
2023-03-22T06:33:09.088Z,86.90
2023-03-22T06:34:09.119Z,86.59
2023-03-22T06:35:09.092Z,87.00
2023-03-22T06:36:09.074Z,86.69
2023-03-22T06:37:09.039Z,87.00
2023-03-22T06:38:09.027Z,87.04
2023-03-22T06:39:09.025Z,87.14
2023-03-22T06:40:09.021Z,87.24
2023-03-22T06:41:08.997Z,87.30
2023-03-22T06:42:09.007Z,87.14
2023-03-22T06:43:08.978Z,87.45
2023-03-22T06:44:08.982Z,86.94
2023-03-22T06:45:08.962Z,86.94
2023-03-22T06:46:09.061Z,87.24
2023-03-22T06:47:08.930Z,86.94
2023-03-22T06:48:08.985Z,87.76
2023-03-22T06:49:08.910Z,87.30
2023-03-22T06:50:08.929Z,87.20
2023-03-22T06:51:08.890Z,86.49
2023-03-22T06:52:08.891Z,87.41
2023-03-22T06:53:08.876Z,87.14
2023-03-22T06:54:08.861Z,86.83
2023-03-22T06:55:08.984Z,87.24
2023-03-22T06:56:08.868Z,86.83
2023-03-22T06:57:08.824Z,87.49
2023-03-22T06:58:08.810Z,87.65
2023-03-22T06:59:08.835Z,87.76
2023-03-22T07:00:08.783Z,87.96
2023-03-22T07:01:08.821Z,88.57
2023-03-22T07:02:08.789Z,88.23
2023-03-22T07:03:08.765Z,86.79
2023-03-22T07:04:08.822Z,87.10
2023-03-22T07:05:08.750Z,87.37
2023-03-22T07:06:08.742Z,87.06
2023-03-22T07:07:08.713Z,86.76
2023-03-22T07:08:08.717Z,86.96
2023-03-22T07:09:08.697Z,87.26
2023-03-22T07:10:08.674Z,86.44
2023-03-22T07:11:08.673Z,86.24
2023-03-22T07:12:08.660Z,86.35
2023-03-22T07:13:08.672Z,86.55
2023-03-22T07:14:08.645Z,86.65
2023-03-22T07:15:08.656Z,86.35
2023-03-22T07:16:08.755Z,86.85
2023-03-22T07:17:08.604Z,86.85
2023-03-22T07:18:08.615Z,86.04
2023-03-22T07:19:08.618Z,86.55
2023-03-22T07:20:08.581Z,86.44
2023-03-22T07:21:08.580Z,85.73
2023-03-22T07:22:08.575Z,85.32
2023-03-22T07:23:08.552Z,85.53
2023-03-22T07:24:08.539Z,86.24
2023-03-22T07:25:08.515Z,86.76
2023-03-22T07:26:08.522Z,85.63
2023-03-22T07:27:08.506Z,85.63
2023-03-22T07:28:08.490Z,85.73
2023-03-22T07:29:08.509Z,86.00
2023-03-22T07:30:09.796Z,85.38
2023-03-22T07:31:08.704Z,85.59
2023-03-22T07:32:08.585Z,85.59
2023-03-22T07:33:08.465Z,85.08
2023-03-22T07:34:08.425Z,85.69
2023-03-22T07:35:08.436Z,84.98
2023-03-22T07:36:08.407Z,85.08
2023-03-22T07:37:08.390Z,84.94
2023-03-22T07:38:08.399Z,85.35
2023-03-22T07:39:08.381Z,85.04
2023-03-22T07:40:08.373Z,84.80
2023-03-22T07:41:08.377Z,83.98
2023-03-22T07:42:08.354Z,83.26
2023-03-22T07:43:08.340Z,83.57
2023-03-22T07:44:17.568Z,82.86
2023-03-22T07:45:09.370Z,83.33
2023-03-22T07:46:08.377Z,83.23
2023-03-22T07:47:08.307Z,83.12
2023-03-22T07:48:08.320Z,82.71
2023-03-22T07:49:08.263Z,82.78
2023-03-22T07:50:08.271Z,82.88
2023-03-22T07:51:08.251Z,81.66
2023-03-22T07:52:08.257Z,81.15
2023-03-22T07:53:08.235Z,81.66
2023-03-22T07:54:08.268Z,82.00
2023-03-22T07:55:08.218Z,82.10
2023-03-22T07:56:08.191Z,82.07
2023-03-22T07:57:08.189Z,81.04
2023-03-22T07:58:08.190Z,81.25
2023-03-22T07:59:08.298Z,81.41
2023-03-22T08:00:08.189Z,81.62
2023-03-22T08:01:08.250Z,80.40
2023-03-22T08:02:08.257Z,80.29
2023-03-22T08:03:08.194Z,80.46
2023-03-22T08:04:08.121Z,80.42
2023-03-22T08:05:08.092Z,79.71
2023-03-22T08:06:08.124Z,79.50
2023-03-22T08:07:08.082Z,78.80
2023-03-22T08:08:08.089Z,79.20
2023-03-22T08:09:08.050Z,79.03
2023-03-22T08:10:08.116Z,79.44
2023-03-22T08:11:08.092Z,80.19
2023-03-22T08:12:08.049Z,79.99
2023-03-22T08:13:08.039Z,80.46
2023-03-22T08:14:08.019Z,79.75
2023-03-22T08:15:08.006Z,79.48
2023-03-22T08:16:08.078Z,80.40
2023-03-22T08:17:07.995Z,80.02
2023-03-22T08:18:07.978Z,81.25
2023-03-22T08:19:07.990Z,80.70
2023-03-22T08:20:07.965Z,80.91
2023-03-22T08:21:07.924Z,80.46
2023-03-22T08:22:07.937Z,79.85
2023-03-22T08:23:07.911Z,79.34
2023-03-22T08:24:07.896Z,80.16
2023-03-22T08:25:07.892Z,79.54
2023-03-22T08:26:07.899Z,79.58
2023-03-22T08:27:07.890Z,79.75
2023-03-22T08:28:07.861Z,79.54
2023-03-22T08:29:07.997Z,79.54
2023-03-22T08:30:07.820Z,79.44
2023-03-22T08:31:07.822Z,79.64
2023-03-22T08:32:07.985Z,79.64
2023-03-22T08:33:07.820Z,79.30
2023-03-22T08:34:07.782Z,79.61
2023-03-22T08:35:07.777Z,79.27
2023-03-22T08:36:07.762Z,79.16
2023-03-22T08:37:07.754Z,78.21
2023-03-22T08:38:07.773Z,77.91
2023-03-22T08:39:07.721Z,77.60
2023-03-22T08:40:07.800Z,77.91
2023-03-22T08:41:07.700Z,77.81
2023-03-22T08:42:07.711Z,77.70
2023-03-22T08:43:07.690Z,77.56
2023-03-22T08:44:07.704Z,77.09
2023-03-22T08:45:07.676Z,76.86
2023-03-22T08:46:07.697Z,77.36
2023-03-22T08:47:07.638Z,76.95
2023-03-22T08:48:07.717Z,77.56
2023-03-22T08:49:07.630Z,76.55
2023-03-22T08:50:07.625Z,76.41
2023-03-22T08:51:07.640Z,76.41
2023-03-22T08:52:07.643Z,75.80
2023-03-22T08:53:07.593Z,74.99
2023-03-22T08:54:07.558Z,75.49
2023-03-22T08:55:07.545Z,75.60
2023-03-22T08:56:07.563Z,75.40
2023-03-22T08:57:07.535Z,75.90
2023-03-22T08:58:07.554Z,76.01
2023-03-22T08:59:07.528Z,75.19
2023-03-22T09:00:07.494Z,75.40
2023-03-22T09:01:07.693Z,75.70
2023-03-22T09:02:07.749Z,75.49
2023-03-22T09:03:07.489Z,76.10
2023-03-22T09:04:10.197Z,75.80
2023-03-22T09:05:07.464Z,77.12
2023-03-22T09:06:07.453Z,75.90
2023-03-22T09:07:07.425Z,75.90
2023-03-22T09:08:07.424Z,75.80
2023-03-22T09:09:07.413Z,75.36
2023-03-22T09:10:07.408Z,75.52
2023-03-22T09:11:07.387Z,74.92
2023-03-22T09:12:07.376Z,75.02
2023-03-22T09:13:07.373Z,74.74
2023-03-22T09:14:07.383Z,74.04
2023-03-22T09:15:07.341Z,73.33
2023-03-22T09:16:07.434Z,73.09
2023-03-22T09:17:07.319Z,71.26
2023-03-22T09:18:07.305Z,71.60
2023-03-22T09:19:07.308Z,71.60
2023-03-22T09:20:12.769Z,72.48
2023-03-22T09:21:08.293Z,71.73
2023-03-22T09:22:07.276Z,70.69
2023-03-22T09:23:07.258Z,69.92
2023-03-22T09:24:07.234Z,67.76
2023-03-22T09:25:07.232Z,64.92
2023-03-22T09:26:07.251Z,60.81
2023-03-22T09:27:07.209Z,60.64
2023-03-22T09:28:07.235Z,61.47
2023-03-22T09:29:07.186Z,61.43
2023-03-22T09:30:07.196Z,63.50
2023-03-22T09:31:07.176Z,63.93
2023-03-22T09:32:07.171Z,63.73
2023-03-22T09:33:07.154Z,64.31
2023-03-22T09:34:07.130Z,63.81
2023-03-22T09:35:07.125Z,64.38
2023-03-22T09:36:07.116Z,63.98
2023-03-22T09:37:07.112Z,62.77
2023-03-22T09:38:07.088Z,63.45
2023-03-22T09:39:07.085Z,63.17
2023-03-22T09:40:07.085Z,63.70
2023-03-22T09:41:07.072Z,64.78
2023-03-22T09:42:07.058Z,64.27
2023-03-22T09:43:07.036Z,64.58
2023-03-22T09:44:07.038Z,64.87
2023-03-22T09:45:07.014Z,66.12
2023-03-22T09:46:07.081Z,66.12
2023-03-22T09:47:06.996Z,65.24
2023-03-22T09:48:07.146Z,66.12
2023-03-22T09:49:06.973Z,65.41
2023-03-22T09:50:06.972Z,64.67
2023-03-22T09:51:06.942Z,64.70
2023-03-22T09:52:06.986Z,64.67
2023-03-22T09:53:06.930Z,63.90
2023-03-22T09:54:06.929Z,63.84
2023-03-22T09:55:06.914Z,63.56
2023-03-22T09:56:06.912Z,64.54
2023-03-22T09:57:06.884Z,63.04
2023-03-22T09:58:06.918Z,61.17
2023-03-22T09:59:06.884Z,59.12
2023-03-22T10:00:06.862Z,56.90
2023-03-22T10:01:07.057Z,54.60
2023-03-22T10:02:07.097Z,51.07
2023-03-22T10:03:06.825Z,50.27
2023-03-22T10:04:06.868Z,49.95
2023-03-22T10:05:06.811Z,49.30
2023-03-22T10:06:06.784Z,48.64
2023-03-22T10:07:06.802Z,46.83
2023-03-22T10:08:06.765Z,44.78
2023-03-22T10:09:06.771Z,43.35
2023-03-22T10:10:06.754Z,42.76
2023-03-22T10:11:06.774Z,43.44
2023-03-22T10:12:15.886Z,44.92
2023-03-22T10:13:06.713Z,46.81
2023-03-22T10:14:06.729Z,49.00
2023-03-22T10:15:06.713Z,51.27
2023-03-22T10:16:06.760Z,52.02
2023-03-22T10:17:06.676Z,52.74
2023-03-22T10:18:06.718Z,53.12
2023-03-22T10:19:06.666Z,53.34
2023-03-22T10:20:06.656Z,53.17
2023-03-22T10:21:06.647Z,54.22
2023-03-22T10:22:06.631Z,55.47
2023-03-22T10:23:06.640Z,55.73
2023-03-22T10:24:06.597Z,56.46
2023-03-22T10:25:06.586Z,57.52
2023-03-22T10:26:06.575Z,58.75
2023-03-22T10:27:06.572Z,59.06
2023-03-22T10:28:06.591Z,59.16
2023-03-22T10:29:06.546Z,59.46
2023-03-22T10:30:06.531Z,59.69
2023-03-22T10:31:06.659Z,59.26
2023-03-22T10:32:06.529Z,59.33
2023-03-22T10:33:06.500Z,59.33
2023-03-22T10:34:07.400Z,58.93
2023-03-22T10:35:06.484Z,59.26
2023-03-22T10:36:06.536Z,59.76
2023-03-22T10:37:06.484Z,59.36
2023-03-22T10:38:06.448Z,59.56
2023-03-22T10:39:06.436Z,59.23
2023-03-22T10:40:06.430Z,58.62
2023-03-22T10:41:06.415Z,57.09
2023-03-22T10:42:06.400Z,58.20
2023-03-22T10:43:06.423Z,57.72
2023-03-22T10:44:06.907Z,58.65
2023-03-22T10:45:06.374Z,58.65
2023-03-22T10:46:06.384Z,58.62
2023-03-22T10:47:06.446Z,58.35
2023-03-22T10:48:06.424Z,58.86
2023-03-22T10:49:06.358Z,58.91
2023-03-22T10:50:06.343Z,60.05
2023-03-22T10:51:06.348Z,60.55
2023-03-22T10:52:06.311Z,60.55
2023-03-22T10:53:06.301Z,60.38
2023-03-22T10:54:06.315Z,60.58
2023-03-22T10:55:06.290Z,61.11
2023-03-22T10:56:06.281Z,61.11
2023-03-22T10:57:06.238Z,61.41
2023-03-22T10:58:06.269Z,61.82
2023-03-22T10:59:06.255Z,62.25
2023-03-22T11:00:06.245Z,62.15
2023-03-22T11:01:06.368Z,62.45
2023-03-22T11:02:09.176Z,62.76
2023-03-22T11:03:06.322Z,62.79
2023-03-22T11:04:06.212Z,62.68
2023-03-22T11:05:06.156Z,62.88
2023-03-22T11:06:06.179Z,62.59
2023-03-22T11:07:06.160Z,62.28
2023-03-22T11:08:06.124Z,62.45
2023-03-22T11:09:06.169Z,61.92
2023-03-22T11:10:06.104Z,61.52
2023-03-22T11:11:06.120Z,61.11
2023-03-22T11:12:06.106Z,61.82
2023-03-22T11:13:06.115Z,61.32
2023-03-22T11:14:06.114Z,61.21
2023-03-22T11:15:06.069Z,61.44
2023-03-22T11:16:06.103Z,61.35
2023-03-22T11:17:06.042Z,61.44
2023-03-22T11:18:06.036Z,61.44
2023-03-22T11:19:06.001Z,61.44
2023-03-22T11:20:07.584Z,61.41
2023-03-22T11:21:05.990Z,61.24
2023-03-22T11:22:06.042Z,61.24
2023-03-22T11:23:05.986Z,61.01
2023-03-22T11:24:05.969Z,61.21
2023-03-22T11:25:05.945Z,61.92
2023-03-22T11:26:05.942Z,61.32
2023-03-22T11:27:06.931Z,61.04
2023-03-22T11:28:05.931Z,61.21
2023-03-22T11:29:05.892Z,60.53
2023-03-22T11:30:05.909Z,60.31
2023-03-22T11:31:05.907Z,59.90
2023-03-22T11:32:05.997Z,60.64
2023-03-22T11:33:05.949Z,60.84
2023-03-22T11:34:05.865Z,61.21
2023-03-22T11:35:05.831Z,60.00
2023-03-22T11:36:05.910Z,60.13
2023-03-22T11:37:05.817Z,59.40
2023-03-22T11:38:05.845Z,59.50
2023-03-22T11:39:05.793Z,58.95
2023-03-22T11:40:05.805Z,59.56
2023-03-22T11:41:05.779Z,59.76
2023-03-22T11:42:05.756Z,59.66
2023-03-22T11:43:05.758Z,59.45
2023-03-22T11:44:05.741Z,59.56
2023-03-22T11:45:05.766Z,59.66
2023-03-22T11:46:05.849Z,59.56
2023-03-22T11:47:05.729Z,59.42
2023-03-22T11:48:05.883Z,59.56
2023-03-22T11:49:05.771Z,59.53
2023-03-22T11:50:06.246Z,59.53
2023-03-22T11:51:05.696Z,59.30
2023-03-22T11:52:05.664Z,59.20
2023-03-22T11:53:05.661Z,59.00
2023-03-22T11:54:05.659Z,59.20
2023-03-22T11:55:05.617Z,59.40
2023-03-22T11:56:05.618Z,59.20
2023-03-22T11:57:05.594Z,59.22
2023-03-22T11:58:05.587Z,58.89
2023-03-22T11:59:05.579Z,58.67
2023-03-22T12:00:05.577Z,58.67
2023-03-22T12:01:05.589Z,58.36
2023-03-22T12:02:05.627Z,58.03
2023-03-22T12:03:05.783Z,57.90
2023-03-22T12:04:05.575Z,57.20
2023-03-22T12:05:05.671Z,57.30
2023-03-22T12:06:05.619Z,57.17
2023-03-22T12:07:05.506Z,57.00
2023-03-22T12:08:05.485Z,57.20
2023-03-22T12:09:05.484Z,57.63
2023-03-22T12:10:05.480Z,57.23
2023-03-22T12:11:05.445Z,57.65
2023-03-22T12:12:05.454Z,57.96
2023-03-22T12:13:05.416Z,58.36
2023-03-22T12:14:05.419Z,57.86
2023-03-22T12:15:05.408Z,58.69
2023-03-22T12:16:05.568Z,59.02
2023-03-22T12:17:05.403Z,59.42
2023-03-22T12:18:07.718Z,59.02
2023-03-22T12:19:05.369Z,59.02
2023-03-22T12:20:05.349Z,58.82
2023-03-22T12:21:05.334Z,58.80
2023-03-22T12:22:05.335Z,59.07
2023-03-22T12:23:05.345Z,58.76
2023-03-22T12:24:05.319Z,58.06
2023-03-22T12:25:05.306Z,56.85
2023-03-22T12:26:05.314Z,56.62
2023-03-22T12:27:05.273Z,56.82
2023-03-22T12:28:05.276Z,57.23
2023-03-22T12:29:05.281Z,57.23
2023-03-22T12:30:05.256Z,56.62
2023-03-22T12:31:05.311Z,56.92
2023-03-22T12:32:05.229Z,56.72
2023-03-22T12:33:05.265Z,57.23
2023-03-22T12:34:05.240Z,57.56
2023-03-22T12:35:16.635Z,57.98
2023-03-22T12:36:06.212Z,58.49
2023-03-22T12:37:05.175Z,58.67
2023-03-22T12:38:05.159Z,58.69
2023-03-22T12:39:05.162Z,58.74
2023-03-22T12:40:05.158Z,58.23
2023-03-22T12:41:05.163Z,57.63
2023-03-22T12:42:05.136Z,58.23
2023-03-22T12:43:05.108Z,57.86
2023-03-22T12:44:05.111Z,58.80
2023-03-22T12:45:05.880Z,59.22
2023-03-22T12:46:05.074Z,59.60
2023-03-22T12:47:05.179Z,59.20
2023-03-22T12:48:05.187Z,59.30
2023-03-22T12:49:05.139Z,58.76
2023-03-22T12:50:05.025Z,58.36
2023-03-22T12:51:05.033Z,58.26
2023-03-22T12:52:05.041Z,58.06